Time;durP1;ratioP1;P1;durP2;ratioP2;P2;SDS_P1;SDS_P2;PMS_P1;PMS_P2;Temp;Humidity;BMP_temperature;BMP_pressure;BME280_temperature;BME280_humidity;BME280_pressure;Samples;Min_cycle;Max_cycle;Signal;HPM_P1;HPM_P2
2023/09/14 00:01:46;;;;;;;11.10;10.60;;;;;;;11.02;100.00;102113.50;4926050;29;20467;-40
2023/09/14 00:04:16;;;;;;;12.10;11.13;;;;;;;11.01;100.00;102119.81;4934193;29;21269;-42
2023/09/14 00:06:43;;;;;;;10.87;10.40;;;;;;;10.99;100.00;102121.84;4934259;29;20480;-40
2023/09/14 00:09:11;;;;;;;10.50;10.20;;;;;;;10.99;100.00;102121.84;4933865;29;21113;-42
2023/09/14 00:11:39;;;;;;;11.27;10.77;;;;;;;11.00;100.00;102123.50;4926220;29;20468;-43
2023/09/14 00:14:07;;;;;;;10.73;10.33;;;;;;;11.01;100.00;102117.16;4934053;29;20963;-46
2023/09/14 00:16:34;;;;;;;11.60;10.93;;;;;;;10.98;100.00;102120.16;4934104;29;20457;-43
2023/09/14 00:19:02;;;;;;;12.03;11.53;;;;;;;10.97;100.00;102130.00;4934308;29;20441;-44
2023/09/14 00:21:31;;;;;;;11.63;11.00;;;;;;;10.93;100.00;102130.50;4925853;29;20461;-39
2023/09/14 00:23:59;;;;;;;11.23;10.63;;;;;;;10.91;100.00;102132.50;4934447;29;20500;-42
2023/09/14 00:26:27;;;;;;;11.07;10.67;;;;;;;10.88;100.00;102128.31;4933921;29;20856;-42
2023/09/14 00:28:54;;;;;;;11.20;10.80;;;;;;;10.86;100.00;102137.50;4933926;29;20437;-42
2023/09/14 00:31:22;;;;;;;11.73;11.03;;;;;;;10.80;100.00;102141.66;4925828;29;20832;-43
2023/09/14 00:33:50;;;;;;;11.80;11.27;;;;;;;10.80;100.00;102139.00;4934486;29;20441;-45
2023/09/14 00:36:17;;;;;;;12.00;11.30;;;;;;;10.79;100.00;102139.13;4934155;29;20461;-45
2023/09/14 00:38:46;;;;;;;11.70;11.13;;;;;;;10.74;100.00;102136.97;4933968;29;20445;-45
2023/09/14 00:41:14;;;;;;;11.97;11.53;;;;;;;10.72;100.00;102146.16;4933346;29;20548;-42
2023/09/14 00:43:42;;;;;;;11.43;11.03;;;;;;;10.72;100.00;102149.63;4933973;29;20798;-41
2023/09/14 00:46:11;;;;;;;12.40;11.80;;;;;;;10.74;100.00;102155.66;4933747;29;20972;-43
2023/09/14 00:48:39;;;;;;;12.07;11.57;;;;;;;10.70;100.00;102153.47;4926457;29;20437;-40
2023/09/14 00:51:08;;;;;;;11.87;11.37;;;;;;;10.68;100.00;102161.63;4926234;29;20518;-41
2023/09/14 00:53:35;;;;;;;13.07;12.47;;;;;;;10.76;100.00;102155.47;4937849;29;20865;-44
2023/09/14 00:56:06;;;;;;;13.07;12.47;;;;;;;10.76;100.00;102158.97;4929567;29;20511;-43
2023/09/14 00:58:34;;;;;;;13.27;12.67;;;;;;;10.73;100.00;102163.81;4929991;29;20812;-44
2023/09/14 01:01:03;;;;;;;13.20;12.40;;;;;;;10.63;100.00;102161.31;4937333;29;20460;-43
2023/09/14 01:03:32;;;;;;;13.13;12.60;;;;;;;10.63;100.00;102163.13;4937454;29;20440;-41
2023/09/14 01:06:00;;;;;;;13.10;12.50;;;;;;;10.63;100.00;102157.78;4937416;29;20913;-43
2023/09/14 01:08:28;;;;;;;14.03;13.30;;;;;;;10.65;100.00;102156.63;4937061;29;20482;-43
2023/09/14 01:10:56;;;;;;;13.07;12.60;;;;;;;10.63;100.00;102149.78;4937040;29;20814;-42
2023/09/14 01:13:30;;;;;;;12.93;12.43;;;;;;;10.59;100.00;102151.94;4937394;29;20527;-40
2023/09/14 01:16:06;;;;;;;12.73;12.33;;;;;;;10.59;100.00;102148.44;4937225;29;20531;-41
2023/09/14 01:18:40;;;;;;;13.93;13.27;;;;;;;10.62;100.00;102159.63;4937079;29;20440;-43
2023/09/14 01:21:36;;;;;;;14.10;13.33;;;;;;;10.61;100.00;102157.09;4936693;29;20860;-40
2023/09/14 01:24:16;;;;;;;13.03;12.53;;;;;;;10.60;100.00;102158.97;4926163;29;20537;-42
2023/09/14 01:26:46;;;;;;;12.50;12.00;;;;;;;10.63;100.00;102152.47;4930332;29;20476;-43
2023/09/14 01:29:13;;;;;;;13.07;12.20;;;;;;;10.63;100.00;102150.63;4936597;29;20472;-43
2023/09/14 01:31:42;;;;;;;12.90;12.40;;;;;;;10.62;100.00;102154.28;4936739;29;20461;-40
2023/09/14 01:34:10;;;;;;;13.30;12.70;;;;;;;10.61;100.00;102154.44;4937055;29;20500;-41
2023/09/14 01:36:43;;;;;;;13.20;12.70;;;;;;;10.59;100.00;102157.28;4936712;29;20527;-41
2023/09/14 01:39:13;;;;;;;12.10;11.50;;;;;;;10.54;100.00;102152.41;4936597;29;20441;-42
2023/09/14 01:41:42;;;;;;;12.90;12.30;;;;;;;10.56;100.00;102157.59;4932196;29;20573;-42
2023/09/14 01:44:13;;;;;;;12.00;11.40;;;;;;;10.57;100.00;102154.75;4933549;29;20499;-44
2023/09/14 01:46:41;;;;;;;12.10;11.47;;;;;;;10.55;100.00;102164.75;4929729;29;20476;-44
2023/09/14 01:49:09;;;;;;;13.23;12.53;;;;;;;10.57;100.00;102154.75;4928596;29;20820;-46
2023/09/14 01:51:36;;;;;;;11.70;11.30;;;;;;;10.57;100.00;102152.09;4928627;29;20468;-44
2023/09/14 01:54:04;;;;;;;11.30;10.90;;;;;;;10.53;100.00;102158.75;4936662;29;20440;-44
2023/09/14 01:56:32;;;;;;;11.27;10.80;;;;;;;10.49;100.00;102159.22;4928266;29;20463;-43
2023/09/14 01:58:59;;;;;;;12.30;11.60;;;;;;;10.49;100.00;102156.56;4936004;29;20441;-42
2023/09/14 02:01:28;;;;;;;12.50;12.00;;;;;;;10.53;100.00;102158.75;4928098;29;20457;-40
2023/09/14 02:03:56;;;;;;;12.43;11.83;;;;;;;10.52;100.00;102157.09;4936640;29;20817;-41
2023/09/14 02:06:24;;;;;;;11.67;11.27;;;;;;;10.52;100.00;102164.25;4928240;29;20536;-41
2023/09/14 02:08:51;;;;;;;12.33;11.83;;;;;;;10.49;100.00;102164.56;4936028;29;20479;-43
2023/09/14 02:11:19;;;;;;;12.03;11.63;;;;;;;10.43;100.00;102162.53;4935902;29;20457;-44
2023/09/14 02:13:47;;;;;;;12.77;11.93;;;;;;;10.33;100.00;102167.19;4931822;29;20442;-44
2023/09/14 02:16:15;;;;;;;11.60;10.90;;;;;;;10.35;100.00;102162.53;4959056;23;20464;-39
2023/09/14 02:18:44;;;;;;;11.30;10.90;;;;;;;10.41;100.00;102157.38;4974970;28;20455;-42
2023/09/14 02:21:12;;;;;;;10.50;10.10;;;;;;;10.46;100.00;102154.22;4977936;28;20478;-41
2023/09/14 02:23:40;;;;;;;11.13;10.23;;;;;;;10.52;100.00;102157.09;4976878;28;20526;-40
2023/09/14 02:26:08;;;;;;;11.17;10.43;;;;;;;10.50;100.00;102164.41;4972667;28;20552;-43
2023/09/14 02:28:37;;;;;;;10.10;9.70;;;;;;;10.50;100.00;102148.41;4953501;29;20939;-41
2023/09/14 02:31:08;;;;;;;10.50;10.00;;;;;;;10.55;100.00;102154.09;4961224;28;20591;-46
2023/09/14 02:33:37;;;;;;;11.53;11.13;;;;;;;10.51;100.00;102150.06;4961409;29;20442;-44
2023/09/14 02:36:06;;;;;;;10.33;9.77;;;;;;;10.57;100.00;102158.44;4961342;29;20860;-44
2023/09/14 02:38:34;;;;;;;10.27;9.77;;;;;;;10.54;100.00;102154.28;4949164;29;20543;-43
2023/09/14 02:41:02;;;;;;;10.20;9.77;;;;;;;10.53;100.00;102160.59;4948808;28;20460;-47
2023/09/14 02:43:29;;;;;;;10.27;9.60;;;;;;;10.51;100.00;102157.25;4951128;29;20471;-41
2023/09/14 02:45:57;;;;;;;9.63;9.33;;;;;;;10.54;100.00;102152.41;4959722;29;20440;-47
2023/09/14 02:48:25;;;;;;;10.27;9.67;;;;;;;10.52;100.00;102146.41;4961076;29;20460;-43
2023/09/14 02:50:52;;;;;;;8.93;8.60;;;;;;;10.53;100.00;102147.25;4961678;28;20460;-44
2023/09/14 02:53:21;;;;;;;9.20;8.70;;;;;;;10.51;100.00;102146.59;4954806;29;20433;-44
2023/09/14 02:55:49;;;;;;;10.63;9.83;;;;;;;10.47;100.00;102143.41;4960495;29;20498;-41
2023/09/14 02:58:17;;;;;;;11.10;10.60;;;;;;;10.41;100.00;102148.53;4959998;29;20456;-44
2023/09/14 03:00:44;;;;;;;10.37;10.07;;;;;;;10.30;100.00;102136.34;4959907;28;20467;-40
2023/09/14 03:03:12;;;;;;;9.97;9.67;;;;;;;10.23;100.00;102142.47;4959930;29;20997;-44
2023/09/14 03:05:40;;;;;;;10.80;10.30;;;;;;;10.20;100.00;102151.63;4952509;29;20462;-43
2023/09/14 03:08:08;;;;;;;9.87;9.57;;;;;;;10.20;100.00;102145.47;4959276;28;20482;-41
2023/09/14 03:10:37;;;;;;;10.13;9.60;;;;;;;10.26;100.00;102148.31;4950266;28;20467;-40
2023/09/14 03:13:05;;;;;;;10.07;9.77;;;;;;;10.35;100.00;102146.53;4951316;29;20467;-42
2023/09/14 03:15:34;;;;;;;10.10;9.70;;;;;;;10.42;100.00;102134.22;4956716;29;20444;-44
2023/09/14 03:18:02;;;;;;;9.80;9.50;;;;;;;10.47;100.00;102153.25;4956221;29;20463;-43
2023/09/14 03:20:30;;;;;;;9.70;9.20;;;;;;;10.46;100.00;102154.22;4961175;28;20468;-46
2023/09/14 03:22:59;;;;;;;10.87;10.47;;;;;;;10.34;100.00;102147.50;4953760;29;20949;-44
2023/09/14 03:25:26;;;;;;;10.83;10.33;;;;;;;10.18;100.00;102145.63;4953522;29;20481;-43
2023/09/14 03:27:56;;;;;;;10.40;9.97;;;;;;;9.99;100.00;102146.66;4958262;28;20496;-48
2023/09/14 03:30:23;;;;;;;10.27;9.90;;;;;;;9.80;100.00;102148.69;4959803;28;20531;-44
2023/09/14 03:32:51;;;;;;;10.93;10.43;;;;;;;9.64;100.00;102135.31;4955596;29;20508;-41
2023/09/14 03:35:19;;;;;;;10.80;10.20;;;;;;;9.52;100.00;102134.72;4952702;28;20805;-49
2023/09/14 03:37:47;;;;;;;11.13;10.60;;;;;;;9.42;100.00;102139.31;4960400;28;20507;-45
2023/09/14 03:40:14;;;;;;;10.47;10.03;;;;;;;9.30;100.00;102145.84;4950948;28;20474;-44
2023/09/14 03:42:42;;;;;;;10.33;9.93;;;;;;;9.19;100.00;102148.78;4956821;28;20440;-44
2023/09/14 03:45:11;;;;;;;10.77;10.33;;;;;;;9.10;100.00;102155.00;4955688;29;20947;-45
2023/09/14 03:47:39;;;;;;;10.20;9.83;;;;;;;9.00;100.00;102162.22;4944801;29;21010;-45
2023/09/14 03:50:09;;;;;;;10.33;9.90;;;;;;;8.94;100.00;102170.81;4960341;28;20455;-41
2023/09/14 03:52:36;;;;;;;11.53;11.10;;;;;;;8.88;100.00;102161.59;4960755;29;20503;-41
2023/09/14 03:55:05;;;;;;;11.40;10.97;;;;;;;8.82;100.00;102163.06;4960823;29;21095;-47
2023/09/14 03:57:33;;;;;;;11.10;10.70;;;;;;;8.80;100.00;102178.34;4958968;28;20467;-43
2023/09/14 04:00:00;;;;;;;12.63;12.13;;;;;;;8.81;100.00;102177.31;4944491;29;20862;-41
2023/09/14 04:02:29;;;;;;;12.20;11.60;;;;;;;8.77;100.00;102167.16;4949204;29;20444;-41
2023/09/14 04:04:57;;;;;;;12.77;12.37;;;;;;;8.74;100.00;102175.44;4958978;28;20445;-45
2023/09/14 04:07:25;;;;;;;13.80;13.30;;;;;;;8.71;100.00;102178.38;4958988;28;20578;-40
2023/09/14 04:09:52;;;;;;;13.30;12.80;;;;;;;8.68;100.00;102176.03;4957977;28;20440;-41
2023/09/14 04:12:20;;;;;;;13.80;13.30;;;;;;;8.67;100.00;102184.97;4958635;28;20452;-40
2023/09/14 04:14:48;;;;;;;15.27;14.47;;;;;;;8.66;100.00;102183.34;4959208;28;20440;-41
2023/09/14 04:17:15;;;;;;;15.17;14.67;;;;;;;8.64;100.00;102182.63;4958993;28;21018;-41
2023/09/14 04:19:45;;;;;;;15.20;14.57;;;;;;;8.62;100.00;102184.59;4952137;28;20494;-41
2023/09/14 04:22:13;;;;;;;16.60;15.67;;;;;;;8.61;100.00;102186.41;4964220;28;20470;-46
2023/09/14 04:24:40;;;;;;;16.20;15.50;;;;;;;8.65;100.00;102197.59;4965098;28;20459;-45
2023/09/14 04:27:08;;;;;;;17.10;16.50;;;;;;;8.65;100.00;102205.56;4969815;28;20464;-45
2023/09/14 04:29:38;;;;;;;17.67;16.90;;;;;;;8.62;100.00;102204.06;4953841;29;20435;-44
2023/09/14 04:32:06;;;;;;;18.20;17.27;;;;;;;8.62;100.00;102200.56;4961934;28;20463;-43
2023/09/14 04:34:34;;;;;;;19.47;18.57;;;;;;;8.59;100.00;102208.84;4962393;28;20447;-42
2023/09/14 04:37:04;;;;;;;19.03;18.13;;;;;;;8.61;100.00;102206.84;4963167;28;20490;-45
2023/09/14 04:39:32;;;;;;;20.03;19.23;;;;;;;8.61;100.00;102201.53;4963563;28;20444;-40
2023/09/14 04:42:00;;;;;;;21.73;20.73;;;;;;;8.63;100.00;102196.91;4962702;28;20471;-42
2023/09/14 04:44:27;;;;;;;20.43;19.60;;;;;;;8.62;100.00;102197.91;4964373;29;20450;-43
2023/09/14 04:46:55;;;;;;;20.13;19.20;;;;;;;8.66;100.00;102202.75;4950901;28;20456;-44
2023/09/14 04:49:23;;;;;;;20.97;20.07;;;;;;;8.65;100.00;102208.25;4952678;29;20488;-40
2023/09/14 04:51:51;;;;;;;20.53;19.73;;;;;;;8.62;100.00;102195.25;4963958;28;20463;-46
2023/09/14 04:54:20;;;;;;;21.10;20.30;;;;;;;8.54;100.00;102192.50;4955622;29;20558;-46
2023/09/14 04:56:48;;;;;;;20.03;19.10;;;;;;;8.54;100.00;102181.84;4962755;29;20559;-43
2023/09/14 04:59:16;;;;;;;19.03;18.23;;;;;;;8.57;100.00;102177.06;4947123;28;20963;-43
2023/09/14 05:01:43;;;;;;;21.30;20.50;;;;;;;8.56;100.00;102187.84;4962043;28;20979;-44
2023/09/14 05:04:11;;;;;;;20.77;19.97;;;;;;;8.51;100.00;102188.28;4956073;28;20448;-41
2023/09/14 05:06:39;;;;;;;19.17;18.47;;;;;;;8.55;100.00;102195.00;4960061;29;20464;-42
2023/09/14 05:09:07;;;;;;;19.90;19.10;;;;;;;8.58;100.00;102193.84;4956821;29;20479;-40
2023/09/14 05:11:36;;;;;;;20.40;19.70;;;;;;;8.62;100.00;102192.59;4951301;28;20499;-42
2023/09/14 05:14:04;;;;;;;19.20;18.60;;;;;;;8.64;100.00;102196.75;4948522;29;20447;-43
2023/09/14 05:16:31;;;;;;;20.73;19.87;;;;;;;8.69;100.00;102191.00;4952381;28;20468;-44
2023/09/14 05:18:59;;;;;;;22.40;21.30;;;;;;;8.79;100.00;102195.28;4953209;28;20440;-42
2023/09/14 05:21:27;;;;;;;20.47;19.57;;;;;;;8.86;100.00;102196.34;4960387;28;20475;-42
2023/09/14 05:23:54;;;;;;;20.30;19.30;;;;;;;8.93;100.00;102203.75;4960371;28;20440;-43
2023/09/14 05:26:22;;;;;;;19.93;19.00;;;;;;;8.98;100.00;102209.44;4956127;29;20448;-41
2023/09/14 05:28:51;;;;;;;20.87;20.13;;;;;;;9.00;100.00;102204.78;4955355;29;20476;-41
2023/09/14 05:31:19;;;;;;;20.47;19.67;;;;;;;9.04;100.00;102212.34;4947306;28;20495;-41
2023/09/14 05:33:46;;;;;;;20.53;19.73;;;;;;;9.13;100.00;102215.91;4958857;28;20452;-42
2023/09/14 05:36:14;;;;;;;20.00;19.33;;;;;;;9.18;100.00;102217.13;4951312;28;20569;-43
2023/09/14 05:38:42;;;;;;;19.47;18.73;;;;;;;9.23;100.00;102220.16;4950781;28;20971;-43
2023/09/14 05:41:10;;;;;;;19.10;18.23;;;;;;;9.39;100.00;102222.16;4951601;28;20474;-41
2023/09/14 05:43:38;;;;;;;18.10;17.50;;;;;;;9.92;100.00;102230.88;4951274;28;20443;-41
2023/09/14 05:46:07;;;;;;;17.43;16.73;;;;;;;11.03;100.00;102230.78;4959555;29;20447;-41
2023/09/14 05:48:35;;;;;;;16.57;15.87;;;;;;;11.99;100.00;102223.00;4958693;28;20991;-43
2023/09/14 05:51:03;;;;;;;15.87;15.37;;;;;;;12.93;100.00;102209.59;4953948;28;20500;-41
2023/09/14 05:53:30;;;;;;;16.53;15.93;;;;;;;13.92;100.00;102214.88;4948204;29;20952;-41
2023/09/14 05:55:58;;;;;;;15.97;15.37;;;;;;;14.77;100.00;102208.88;4952913;29;20535;-41
2023/09/14 05:58:26;;;;;;;13.87;13.40;;;;;;;15.68;100.00;102215.41;4950891;28;20482;-41
2023/09/14 06:00:54;;;;;;;12.10;11.57;;;;;;;16.35;100.00;102207.56;4951628;29;20466;-42
2023/09/14 06:03:24;;;;;;;9.50;9.20;;;;;;;16.83;100.00;102201.19;4943765;29;20437;-40
2023/09/14 06:05:51;;;;;;;8.40;8.10;;;;;;;17.44;100.00;102203.81;4951703;29;20538;-44
2023/09/14 06:08:23;;;;;;;7.87;7.67;;;;;;;18.09;100.00;102194.88;4959268;29;20986;-43
2023/09/14 06:10:50;;;;;;;8.60;7.90;;;;;;;18.68;100.00;102192.00;4958483;29;20510;-41
2023/09/14 06:13:20;;;;;;;6.67;6.47;;;;;;;18.57;100.00;102196.22;4958588;29;20870;-41
2023/09/14 06:15:48;;;;;;;7.27;6.97;;;;;;;18.12;100.00;102191.75;4958733;28;20439;-41
2023/09/14 06:18:15;;;;;;;6.37;6.10;;;;;;;17.68;100.00;102204.03;4958674;28;20808;-41
2023/09/14 06:20:45;;;;;;;6.33;5.83;;;;;;;17.21;100.00;102206.88;4958286;29;20495;-43
2023/09/14 06:23:12;;;;;;;6.97;6.70;;;;;;;16.83;100.00;102206.59;4958918;29;20482;-41
2023/09/14 06:25:40;;;;;;;6.53;6.30;;;;;;;16.56;100.00;102205.66;4958939;29;20526;-42
2023/09/14 06:28:08;;;;;;;6.50;6.20;;;;;;;16.35;100.00;102216.50;4963900;28;20485;-41
2023/09/14 06:30:35;;;;;;;7.63;7.20;;;;;;;16.16;100.00;102219.06;4958280;28;20514;-42
2023/09/14 06:33:03;;;;;;;7.30;6.90;;;;;;;16.00;100.00;102220.22;4958582;29;20820;-41
2023/09/14 06:35:31;;;;;;;6.83;6.53;;;;;;;15.88;100.00;102232.53;4958981;28;20435;-41
2023/09/14 06:38:01;;;;;;;7.60;7.20;;;;;;;15.99;100.00;102223.91;4958917;29;20470;-40
2023/09/14 06:40:28;;;;;;;6.60;6.20;;;;;;;16.59;100.00;102226.81;4962955;28;20530;-41
2023/09/14 06:42:56;;;;;;;6.20;5.90;;;;;;;17.19;100.00;102227.00;4969446;28;20883;-41
2023/09/14 06:45:24;;;;;;;6.83;6.53;;;;;;;17.53;100.00;102224.16;4978070;28;20442;-43
2023/09/14 06:47:52;;;;;;;7.73;7.20;;;;;;;17.46;100.00;102224.16;4977286;28;20458;-43
2023/09/14 06:50:19;;;;;;;6.17;5.80;;;;;;;17.80;100.00;102233.94;4976390;28;20581;-46
2023/09/14 06:52:49;;;;;;;6.63;6.17;;;;;;;18.36;100.00;102231.59;4974573;28;20499;-41
2023/09/14 06:55:19;;;;;;;7.57;5.80;;;;;;;19.02;100.00;102226.78;4973199;28;20439;-42
2023/09/14 06:57:47;;;;;;;5.90;5.70;;;;;;;19.58;100.00;102226.84;4977406;28;20465;-42
2023/09/14 07:00:16;;;;;;;5.57;5.37;;;;;;;20.14;100.00;102225.94;4976999;28;20501;-41
2023/09/14 07:02:44;;;;;;;5.40;5.13;;;;;;;20.23;95.72;102230.84;4977265;28;20454;-41
2023/09/14 07:05:12;;;;;;;5.40;5.00;;;;;;;20.42;92.13;102229.00;4963659;28;20443;-44
2023/09/14 07:07:40;;;;;;;6.00;5.40;;;;;;;20.67;97.53;102234.34;4976500;28;20509;-44
2023/09/14 07:10:09;;;;;;;5.97;5.70;;;;;;;20.69;92.02;102243.06;4971650;28;20475;-43
2023/09/14 07:12:38;;;;;;;5.20;4.90;;;;;;;20.74;91.36;102232.38;4976322;28;20497;-45
2023/09/14 07:15:07;;;;;;;5.27;5.00;;;;;;;20.53;89.46;102240.97;4973620;28;20471;-42
2023/09/14 07:17:35;;;;;;;4.80;4.60;;;;;;;20.45;88.38;102238.56;4976198;28;20878;-46
2023/09/14 07:20:04;;;;;;;4.93;4.73;;;;;;;20.34;89.33;102235.53;4970141;28;20446;-45
2023/09/14 07:22:32;;;;;;;5.60;5.07;;;;;;;20.28;90.73;102236.44;4979192;28;20438;-41
2023/09/14 07:24:59;;;;;;;4.87;4.43;;;;;;;20.07;87.98;102236.81;4965562;28;20453;-42
2023/09/14 07:27:27;;;;;;;4.30;4.00;;;;;;;19.88;87.29;102235.13;4973513;28;20513;-41
2023/09/14 07:29:56;;;;;;;7.30;4.57;;;;;;;19.85;92.79;102239.13;4976626;28;20498;-44
2023/09/14 07:32:24;;;;;;;4.70;4.50;;;;;;;19.77;91.11;102241.28;4970275;28;20473;-40
2023/09/14 07:34:52;;;;;;;4.43;4.23;;;;;;;19.80;90.33;102244.34;4977479;28;20481;-41
2023/09/14 07:37:19;;;;;;;4.57;4.27;;;;;;;19.66;88.24;102242.81;4977384;28;20481;-41
2023/09/14 07:39:47;;;;;;;4.20;3.90;;;;;;;19.73;90.66;102242.75;4976812;28;20835;-42
2023/09/14 07:42:14;;;;;;;4.73;3.93;;;;;;;19.86;84.95;102240.75;4977168;28;20993;-47
2023/09/14 07:44:42;;;;;;;4.23;3.90;;;;;;;19.87;89.76;102247.84;4977043;28;20474;-42
2023/09/14 07:47:11;;;;;;;4.60;3.93;;;;;;;19.69;90.66;102246.94;4977235;28;20466;-41
2023/09/14 07:49:39;;;;;;;4.40;4.10;;;;;;;19.53;92.23;102252.91;4975994;28;20513;-42
2023/09/14 07:52:06;;;;;;;6.43;4.10;;;;;;;19.82;93.49;102258.53;4976726;28;20633;-44
2023/09/14 07:54:35;;;;;;;4.93;4.33;;;;;;;20.03;90.04;102259.16;4977159;28;20452;-41
2023/09/14 07:57:02;;;;;;;4.70;4.27;;;;;;;20.20;90.17;102260.25;4977607;28;20517;-42
2023/09/14 07:59:30;;;;;;;4.73;4.43;;;;;;;20.51;92.23;102251.22;4977997;28;20831;-41
2023/09/14 08:01:58;;;;;;;4.63;4.33;;;;;;;20.66;86.16;102252.50;4977880;28;20463;-47
2023/09/14 08:04:27;;;;;;;4.70;4.27;;;;;;;20.51;85.67;102253.91;4977949;28;20448;-41
2023/09/14 08:06:55;;;;;;;4.10;3.80;;;;;;;20.11;83.78;102251.59;4970390;28;20462;-41
2023/09/14 08:09:22;;;;;;;7.20;4.33;;;;;;;20.19;87.69;102254.00;4977341;28;20482;-41
2023/09/14 08:11:50;;;;;;;5.90;3.80;;;;;;;20.31;88.27;102254.94;4977770;28;20474;-41
2023/09/14 08:14:18;;;;;;;4.77;4.20;;;;;;;20.51;89.80;102245.78;4977792;28;20964;-40
2023/09/14 08:16:45;;;;;;;4.03;3.73;;;;;;;20.73;84.55;102253.22;4977627;28;20764;-41
2023/09/14 08:19:13;;;;;;;4.43;3.70;;;;;;;20.46;80.20;102256.47;4977381;28;20470;-42
2023/09/14 08:21:42;;;;;;;9.90;3.90;;;;;;;20.75;83.62;102255.72;4977368;28;20485;-41
2023/09/14 08:24:10;;;;;;;5.60;3.60;;;;;;;20.96;82.58;102256.06;4976169;28;20443;-40
2023/09/14 08:26:38;;;;;;;3.13;2.83;;;;;;;20.91;79.09;102255.09;4975601;28;20485;-42
2023/09/14 08:29:05;;;;;;;3.37;3.17;;;;;;;21.15;80.85;102258.75;4975571;28;20445;-41
2023/09/14 08:31:33;;;;;;;2.80;2.60;;;;;;;21.31;74.03;102256.25;4975206;28;20482;-41
2023/09/14 08:34:01;;;;;;;3.20;3.00;;;;;;;21.26;74.36;102260.72;4975383;28;20485;-43
2023/09/14 08:36:29;;;;;;;4.43;2.97;;;;;;;21.10;74.21;102262.16;4967902;28;20439;-41
2023/09/14 08:38:58;;;;;;;4.20;3.23;;;;;;;21.00;68.12;102271.91;4967431;28;20806;-41
2023/09/14 08:41:44;;;;;;;4.60;2.70;;;;;;;21.42;74.73;102271.72;4975045;28;20977;-42
2023/09/14 08:44:12;;;;;;;5.90;2.80;;;;;;;21.47;71.30;102277.28;4975421;28;20497;-40
2023/09/14 08:46:42;;;;;;;11.30;3.97;;;;;;;21.61;74.58;102283.34;4975115;28;20862;-41
2023/09/14 08:49:12;;;;;;;4.60;3.17;;;;;;;21.77;68.76;102277.25;4975219;28;20551;-42
2023/09/14 08:51:43;;;;;;;9.67;3.30;;;;;;;21.91;73.41;102294.19;4966756;28;20481;-40
2023/09/14 08:54:12;;;;;;;11.60;3.83;;;;;;;21.97;69.98;102295.97;4969763;28;20900;-41
2023/09/14 08:56:44;;;;;;;4.07;3.00;;;;;;;21.82;69.50;102290.94;4973028;28;20478;-39
2023/09/14 08:59:13;;;;;;;4.00;3.60;;;;;;;21.62;71.05;102297.75;4967056;28;20686;-41
2023/09/14 09:01:43;;;;;;;2.67;2.47;;;;;;;21.37;71.90;102295.19;4973518;28;20509;-41
2023/09/14 09:04:11;;;;;;;4.70;3.33;;;;;;;21.27;74.33;102298.44;4969080;28;20521;-42
2023/09/14 09:06:39;;;;;;;3.20;2.87;;;;;;;21.04;72.93;102301.03;4975326;28;20458;-41
2023/09/14 09:09:09;;;;;;;3.70;3.40;;;;;;;20.88;73.28;102296.22;4978463;28;20469;-40
2023/09/14 09:11:39;;;;;;;5.53;3.50;;;;;;;20.76;72.87;102288.00;4977778;28;20470;-41
2023/09/14 09:14:07;;;;;;;4.67;3.33;;;;;;;20.77;74.29;102296.97;4978003;28;20442;-41
2023/09/14 09:16:34;;;;;;;3.93;3.17;;;;;;;20.72;74.71;102291.41;4978232;28;20500;-42
2023/09/14 09:19:03;;;;;;;3.13;2.93;;;;;;;20.85;73.99;102302.91;4978457;28;20830;-41
2023/09/14 09:21:36;;;;;;;6.80;3.73;;;;;;;21.16;74.60;102301.13;4977358;28;20484;-42
2023/09/14 09:24:06;;;;;;;3.13;2.80;;;;;;;21.32;68.96;102309.47;4963614;28;20438;-40
2023/09/14 09:26:35;;;;;;;5.03;2.73;;;;;;;21.18;70.39;102307.13;4983454;28;20516;-41
2023/09/14 09:29:15;;;;;;;8.33;4.23;;;;;;;21.27;68.85;102308.47;4977561;28;20989;-42
2023/09/14 09:31:44;;;;;;;6.33;2.87;;;;;;;21.26;68.51;102307.66;4977774;28;20840;-44
2023/09/14 09:34:14;;;;;;;7.80;3.03;;;;;;;21.13;68.94;102307.84;4970264;28;20775;-42
2023/09/14 09:36:42;;;;;;;2.50;2.30;;;;;;;20.96;67.76;102307.59;4970389;28;20459;-41
2023/09/14 09:39:13;;;;;;;3.20;2.57;;;;;;;21.10;69.44;102308.28;4977580;28;20545;-42
2023/09/14 09:41:41;;;;;;;5.60;2.70;;;;;;;21.30;70.79;102303.41;4978283;28;20466;-42
2023/09/14 09:44:10;;;;;;;7.70;2.93;;;;;;;21.24;67.53;102300.78;4978633;28;20538;-42
2023/09/14 09:46:39;;;;;;;3.43;2.97;;;;;;;21.03;68.91;102296.66;4970211;28;20462;-44
2023/09/14 09:49:18;;;;;;;5.20;3.07;;;;;;;21.01;67.70;102301.47;4979567;28;20443;-42
2023/09/14 09:51:48;;;;;;;2.90;2.60;;;;;;;20.97;69.37;102302.97;4971928;28;20467;-42
2023/09/14 09:54:19;;;;;;;5.17;2.90;;;;;;;20.82;69.86;102305.25;4971574;28;21253;-42
2023/09/14 09:56:47;;;;;;;7.00;2.93;;;;;;;20.85;68.71;102307.50;4963773;28;20491;-41
2023/09/14 09:59:16;;;;;;;3.17;2.77;;;;;;;20.98;68.32;102310.06;4979974;28;20444;-42
2023/09/14 10:01:47;;;;;;;3.40;2.70;;;;;;;21.19;69.32;102309.63;4978894;28;20500;-41
2023/09/14 10:04:17;;;;;;;5.73;2.97;;;;;;;21.40;67.02;102301.00;4979515;28;20806;-42
2023/09/14 10:06:50;;;;;;;3.00;2.60;;;;;;;21.59;67.55;102304.47;4980058;28;20451;-46
2023/09/14 10:09:18;;;;;;;4.27;3.20;;;;;;;21.69;67.29;102303.91;4979199;28;20494;-39
2023/09/14 10:11:50;;;;;;;4.30;2.83;;;;;;;21.75;64.16;102297.53;4978156;28;20477;-41
2023/09/14 10:14:22;;;;;;;2.50;2.40;;;;;;;21.78;63.30;102300.63;4978839;28;20442;-41
2023/09/14 10:16:54;;;;;;;4.80;2.97;;;;;;;21.91;64.26;102299.63;4978761;28;20462;-43
2023/09/14 10:19:23;;;;;;;4.63;2.60;;;;;;;21.98;64.31;102292.19;4978335;28;20438;-43
2023/09/14 10:21:53;;;;;;;5.77;2.50;;;;;;;22.31;64.22;102284.25;4975081;28;20462;-41
2023/09/14 10:24:22;;;;;;;8.07;3.80;;;;;;;22.61;59.46;102284.94;4973023;28;20438;-41
2023/09/14 10:26:50;;;;;;;3.70;2.73;;;;;;;22.51;60.79;102290.19;4978311;28;20989;-44
2023/09/14 10:29:19;;;;;;;5.30;2.40;;;;;;;22.57;61.26;102291.94;4978959;28;20435;-42
2023/09/14 10:31:50;;;;;;;3.97;3.00;;;;;;;22.53;59.17;102287.22;4980265;28;20553;-41
2023/09/14 10:34:20;;;;;;;3.40;2.83;;;;;;;23.06;59.47;102276.09;4980642;28;20466;-43
2023/09/14 10:36:51;;;;;;;3.10;2.80;;;;;;;22.87;58.88;102280.09;4978020;28;20462;-43
2023/09/14 10:39:22;;;;;;;3.17;2.80;;;;;;;23.02;59.00;102275.78;4974544;28;20492;-44
2023/09/14 10:41:50;;;;;;;3.77;3.07;;;;;;;22.91;53.82;102273.91;4980112;28;21040;-44
2023/09/14 10:44:18;;;;;;;4.57;3.07;;;;;;;22.76;58.05;102275.50;4980195;28;20438;-41
2023/09/14 10:46:48;;;;;;;6.07;3.10;;;;;;;22.32;58.19;102282.38;4979403;28;20513;-41
2023/09/14 10:49:16;;;;;;;5.00;3.07;;;;;;;22.12;60.08;102280.03;4978770;28;20443;-42
2023/09/14 10:51:47;;;;;;;5.23;3.20;;;;;;;22.14;60.28;102269.75;4977618;28;20474;-44
2023/09/14 10:54:15;;;;;;;5.33;3.10;;;;;;;22.25;59.79;102278.97;4979283;28;20438;-40
2023/09/14 10:56:45;;;;;;;5.23;2.90;;;;;;;22.57;59.15;102272.09;4978053;28;20834;-43
2023/09/14 10:59:14;;;;;;;2.60;2.40;;;;;;;22.05;55.22;102268.44;4972346;28;20449;-42
2023/09/14 11:01:50;;;;;;;3.30;3.00;;;;;;;21.87;58.64;102268.50;4978384;28;20482;-42
2023/09/14 11:04:22;;;;;;;5.30;3.00;;;;;;;21.62;59.82;102268.72;4978912;28;20438;-44
2023/09/14 11:06:54;;;;;;;8.77;4.17;;;;;;;22.11;61.54;102272.94;4968940;28;20459;-43
2023/09/14 11:09:25;;;;;;;3.10;2.80;;;;;;;22.72;59.88;102261.56;4959156;28;20445;-45
2023/09/14 11:11:54;;;;;;;18.77;4.63;;;;;;;22.58;58.91;102266.38;4976440;28;21035;-44
2023/09/14 11:14:26;;;;;;;18.03;5.67;;;;;;;22.69;59.76;102263.94;4979265;28;20485;-44
2023/09/14 11:16:58;;;;;;;5.83;3.47;;;;;;;22.97;60.16;102263.94;4978650;28;20470;-41
2023/09/14 11:19:48;;;;;;;4.03;2.60;;;;;;;23.00;57.88;102264.28;4979303;28;20441;-44
2023/09/14 11:22:27;;;;;;;6.07;2.77;;;;;;;22.73;58.01;102265.91;4972391;28;20982;-44